LFRV/VNE METAR and TAF weather

Enter ICAO airport designator
Station Type Date Time Source
LFRV METAR 2020/09/22 05:00 UTC NOAA

LFRV 220500Z AUTO 27003KT 210V300 4500 BR SCT004 OVC018 16/15 Q1014


Station Type Date Time Source
LFRV Decoded METAR 2020/09/22 05:00 UTC NOAA

Station name not available
Sep 22, 2020 - 01:00 AM EDT / 2020.09.22 0500 UTC
Wind: from the W (270 degrees) at 3 MPH (3 KT) (direction variable):0
Visibility: 2 mile(s):0
Sky conditions: overcast
Weather: mist
Temperature: 60 F (16 C)
Dew Point: 59 F (15 C)
Relative Humidity: 93%
Pressure (altimeter): 29.94 in. Hg (1014 hPa)
ob: LFRV 220500Z AUTO 27003KT 210V300 4500 BR SCT004 OVC018 16/15 Q1014
cycle: 5

Station Type Date Time Source
LFRV TAF UTC NOAA

Error!

Example: see airport list